createdAt,value
2023-06-19T00:00:01.955Z,13.32
2023-06-19T00:00:33.792Z,11.77
2023-06-19T00:01:05.212Z,12.05
2023-06-19T00:01:36.828Z,12.90
2023-06-19T00:02:08.328Z,12.95
2023-06-19T00:02:40.638Z,13.23
2023-06-19T00:03:12.328Z,12.73
2023-06-19T00:03:43.794Z,11.83
2023-06-19T00:04:15.305Z,11.98
2023-06-19T00:04:46.748Z,12.50
2023-06-19T00:05:18.233Z,12.07
2023-06-19T00:05:49.601Z,11.57
2023-06-19T00:06:21.095Z,12.80
2023-06-19T00:06:52.599Z,12.48
2023-06-19T00:07:24.032Z,11.65
2023-06-19T00:07:55.458Z,12.13
2023-06-19T00:08:26.931Z,13.02
2023-06-19T00:08:58.373Z,14.45
2023-06-19T00:09:29.780Z,11.98
2023-06-19T00:10:01.209Z,12.40
2023-06-19T00:10:32.680Z,12.52
2023-06-19T00:11:04.134Z,13.57
2023-06-19T00:11:35.548Z,12.48
2023-06-19T00:12:07.128Z,12.15
2023-06-19T00:12:38.533Z,13.23
2023-06-19T00:13:09.955Z,12.10
2023-06-19T00:13:41.441Z,11.65
2023-06-19T00:14:12.900Z,11.63
2023-06-19T00:14:44.298Z,12.98
2023-06-19T00:15:15.770Z,12.13
2023-06-19T00:15:47.269Z,12.55
2023-06-19T00:16:18.936Z,11.60
2023-06-19T00:16:50.430Z,12.30
2023-06-19T00:17:21.904Z,12.05
2023-06-19T00:17:53.384Z,12.27
2023-06-19T00:18:24.844Z,10.95
2023-06-19T00:18:56.566Z,12.80
2023-06-19T00:19:27.987Z,12.18
2023-06-19T00:19:59.438Z,10.95
2023-06-19T00:20:30.861Z,11.88
2023-06-19T00:21:02.312Z,13.18
2023-06-19T00:21:33.774Z,12.63
2023-06-19T00:22:05.343Z,12.60
2023-06-19T00:22:36.783Z,12.73
2023-06-19T00:23:08.273Z,12.00
2023-06-19T00:23:39.743Z,12.73
2023-06-19T00:24:11.740Z,13.30
2023-06-19T00:24:43.251Z,11.88
2023-06-19T00:25:14.759Z,12.02
2023-06-19T00:25:46.338Z,11.65
2023-06-19T00:26:17.828Z,11.20
2023-06-19T00:26:49.260Z,11.80
2023-06-19T00:27:20.670Z,11.98
2023-06-19T00:27:52.090Z,12.07
2023-06-19T00:28:23.492Z,11.20
2023-06-19T00:28:54.920Z,12.13
2023-06-19T00:29:26.409Z,12.30
2023-06-19T00:29:57.782Z,12.48
2023-06-19T00:30:29.236Z,11.27
2023-06-19T00:31:00.678Z,11.20
2023-06-19T00:31:32.100Z,12.23
2023-06-19T00:32:03.592Z,13.18
2023-06-19T00:32:35.033Z,11.52
2023-06-19T00:33:06.679Z,12.02
2023-06-19T00:33:38.102Z,12.35
2023-06-19T00:34:09.506Z,11.60
2023-06-19T00:34:40.953Z,12.52
2023-06-19T00:35:12.358Z,12.20
2023-06-19T00:35:43.763Z,11.52
2023-06-19T00:36:16.222Z,12.13
2023-06-19T00:36:47.639Z,12.57
2023-06-19T00:37:19.106Z,12.23
2023-06-19T00:37:50.573Z,12.55
2023-06-19T00:38:22.038Z,11.77
2023-06-19T00:38:53.507Z,11.73
2023-06-19T00:39:25.285Z,12.27
2023-06-19T00:39:56.703Z,12.55
2023-06-19T00:40:29.145Z,11.95
2023-06-19T00:41:00.699Z,11.73
2023-06-19T00:41:32.928Z,12.50
2023-06-19T00:42:04.518Z,11.50
2023-06-19T00:42:35.946Z,12.82
2023-06-19T00:43:07.543Z,12.23
2023-06-19T00:43:38.980Z,11.35
2023-06-19T00:44:10.637Z,11.73
2023-06-19T00:44:42.077Z,12.57
2023-06-19T00:45:13.501Z,10.63
2023-06-19T00:45:44.962Z,12.45
2023-06-19T00:46:16.506Z,12.30
2023-06-19T00:46:48.114Z,12.15
2023-06-19T00:47:19.618Z,12.00
2023-06-19T00:47:51.703Z,11.45
2023-06-19T00:48:23.344Z,11.95
2023-06-19T00:48:54.783Z,13.05
2023-06-19T00:49:26.725Z,13.05
2023-06-19T00:49:58.197Z,12.25
2023-06-19T00:50:30.053Z,12.65
2023-06-19T00:51:01.662Z,11.90
2023-06-19T00:51:33.223Z,11.48
2023-06-19T00:52:04.838Z,12.88
2023-06-19T00:52:36.261Z,12.88
2023-06-19T00:53:07.746Z,12.25
2023-06-19T00:53:39.142Z,12.10
2023-06-19T00:54:10.570Z,13.18
2023-06-19T00:54:41.998Z,12.52
2023-06-19T00:55:14.072Z,12.98
2023-06-19T00:55:46.155Z,12.27
2023-06-19T00:56:17.600Z,11.30
2023-06-19T00:56:49.260Z,12.63
2023-06-19T00:57:20.750Z,12.90
2023-06-19T00:57:52.743Z,11.50
2023-06-19T00:58:24.547Z,12.25
2023-06-19T00:58:56.357Z,13.38
2023-06-19T00:59:27.879Z,12.52
2023-06-19T00:59:59.373Z,12.20
2023-06-19T01:00:30.835Z,11.80
2023-06-19T01:01:08.837Z,11.57
2023-06-19T01:01:42.520Z,13.38
2023-06-19T01:02:14.236Z,13.38
2023-06-19T01:02:47.466Z,12.65
2023-06-19T01:03:19.314Z,12.23
2023-06-19T01:03:51.117Z,12.38
2023-06-19T01:04:22.796Z,11.95
2023-06-19T01:04:54.442Z,13.52
2023-06-19T01:05:26.284Z,12.38
2023-06-19T01:05:59.779Z,13.57
2023-06-19T01:06:37.858Z,12.63
2023-06-19T01:07:14.490Z,12.18
2023-06-19T01:07:53.778Z,13.15
2023-06-19T01:08:42.663Z,12.07
2023-06-19T01:09:16.352Z,13.10
2023-06-19T01:09:49.826Z,13.10
2023-06-19T01:10:24.018Z,12.85
2023-06-19T01:10:57.708Z,12.80
2023-06-19T01:11:32.508Z,12.63
2023-06-19T01:12:10.211Z,12.77
2023-06-19T01:12:44.980Z,12.98
2023-06-19T01:13:29.464Z,12.75
2023-06-19T01:14:03.820Z,13.45
2023-06-19T01:14:39.054Z,13.57
2023-06-19T01:15:10.512Z,12.50
2023-06-19T01:15:42.722Z,12.52
2023-06-19T01:16:14.499Z,13.13
2023-06-19T01:16:46.399Z,11.88
2023-06-19T01:17:18.053Z,12.02
2023-06-19T01:17:50.074Z,12.65
2023-06-19T01:18:21.843Z,12.48
2023-06-19T01:18:54.061Z,12.77
2023-06-19T01:19:25.584Z,12.02
2023-06-19T01:19:57.714Z,11.25
2023-06-19T01:20:29.274Z,13.27
2023-06-19T01:21:13.742Z,11.77
2023-06-19T01:21:45.722Z,12.52
2023-06-19T01:22:26.367Z,12.35
2023-06-19T01:22:58.157Z,11.15
2023-06-19T01:23:29.686Z,11.85
2023-06-19T01:24:01.078Z,12.23
2023-06-19T01:24:32.781Z,12.65
2023-06-19T01:25:04.363Z,12.15
2023-06-19T01:25:35.765Z,12.65
2023-06-19T01:26:07.809Z,12.13
2023-06-19T01:26:39.273Z,11.88
2023-06-19T01:27:10.688Z,12.15
2023-06-19T01:27:42.867Z,11.52
2023-06-19T01:28:14.352Z,11.32
2023-06-19T01:28:46.704Z,11.60
2023-06-19T01:29:18.388Z,11.05
2023-06-19T01:29:50.138Z,11.83
2023-06-19T01:30:21.818Z,12.05
2023-06-19T01:30:56.013Z,11.52
2023-06-19T01:31:38.798Z,10.83
2023-06-19T01:32:30.520Z,11.98
2023-06-19T01:33:07.301Z,10.30
2023-06-19T01:33:40.243Z,9.88
2023-06-19T01:34:11.776Z,10.20
2023-06-19T01:34:43.617Z,12.02
2023-06-19T01:35:16.682Z,10.98
2023-06-19T01:35:49.043Z,10.30
2023-06-19T01:36:21.601Z,10.63
2023-06-19T01:36:54.057Z,10.93
2023-06-19T01:37:26.167Z,11.73
2023-06-19T01:37:57.864Z,10.00
2023-06-19T01:38:30.017Z,9.98
2023-06-19T01:39:01.624Z,10.90
2023-06-19T01:39:33.790Z,10.65
2023-06-19T01:40:06.592Z,10.45
2023-06-19T01:40:38.726Z,11.02
2023-06-19T01:41:10.806Z,10.40
2023-06-19T01:41:43.256Z,9.50
2023-06-19T01:42:15.805Z,10.40
2023-06-19T01:42:47.507Z,10.70
2023-06-19T01:43:19.392Z,11.35
2023-06-19T01:43:51.176Z,10.52
2023-06-19T01:44:22.980Z,11.10
2023-06-19T01:44:54.697Z,10.55
2023-06-19T01:45:26.509Z,10.60
2023-06-19T01:45:58.017Z,10.30
2023-06-19T01:46:29.553Z,9.73
2023-06-19T01:47:01.010Z,10.75
2023-06-19T01:47:32.516Z,9.95
2023-06-19T01:48:04.222Z,9.75
2023-06-19T01:48:39.442Z,9.40
2023-06-19T01:49:10.934Z,10.35
2023-06-19T01:49:42.431Z,10.10
2023-06-19T01:50:13.830Z,9.95
2023-06-19T01:50:48.735Z,10.10
2023-06-19T01:51:20.214Z,10.13
2023-06-19T01:51:51.643Z,10.98
2023-06-19T01:52:23.059Z,9.95
2023-06-19T01:52:54.773Z,10.68
2023-06-19T01:53:26.306Z,10.93
2023-06-19T01:53:57.721Z,10.02
2023-06-19T01:54:29.216Z,9.02
2023-06-19T01:55:00.642Z,10.52
2023-06-19T01:55:32.119Z,10.30
2023-06-19T01:56:03.713Z,9.85
2023-06-19T01:56:35.242Z,10.10
2023-06-19T01:57:07.115Z,10.15
2023-06-19T01:57:38.526Z,9.60
2023-06-19T01:58:09.988Z,9.80
2023-06-19T01:58:41.408Z,9.15
2023-06-19T01:59:12.841Z,10.50
2023-06-19T01:59:44.284Z,8.80
2023-06-19T02:00:16.042Z,10.02
2023-06-19T02:00:47.457Z,9.00
2023-06-19T02:01:18.961Z,8.83
2023-06-19T02:01:50.352Z,9.43
2023-06-19T02:02:21.811Z,9.55
2023-06-19T02:02:53.247Z,8.95
2023-06-19T02:03:24.980Z,9.38
2023-06-19T02:03:56.594Z,10.10
2023-06-19T02:04:28.076Z,9.60
2023-06-19T02:04:59.549Z,9.57
2023-06-19T02:05:33.613Z,10.50
2023-06-19T02:06:05.089Z,9.50
2023-06-19T02:06:36.500Z,8.85
2023-06-19T02:07:07.930Z,8.93
2023-06-19T02:07:39.362Z,9.80
2023-06-19T02:08:10.779Z,9.75
2023-06-19T02:08:42.223Z,9.43
2023-06-19T02:09:13.685Z,9.93
2023-06-19T02:09:45.141Z,9.52
2023-06-19T02:10:16.540Z,9.48
2023-06-19T02:10:48.096Z,9.45
2023-06-19T02:11:19.547Z,8.82
2023-06-19T02:11:51.042Z,8.88
2023-06-19T02:12:22.534Z,9.88
2023-06-19T02:12:53.968Z,10.55
2023-06-19T02:13:25.445Z,9.48
2023-06-19T02:13:56.880Z,9.82
2023-06-19T02:14:28.262Z,9.82
2023-06-19T02:14:59.759Z,9.77
2023-06-19T02:15:31.187Z,8.73
2023-06-19T02:16:02.636Z,8.75
2023-06-19T02:16:34.107Z,9.75
2023-06-19T02:17:05.715Z,9.73
2023-06-19T02:17:37.224Z,10.57
2023-06-19T02:18:09.415Z,10.98
2023-06-19T02:18:40.830Z,9.43
2023-06-19T02:19:12.272Z,8.77
2023-06-19T02:19:43.680Z,9.05
2023-06-19T02:20:15.105Z,9.75
2023-06-19T02:20:46.531Z,9.15
2023-06-19T02:21:17.989Z,10.38
2023-06-19T02:21:49.389Z,9.25
2023-06-19T02:22:20.779Z,8.97
2023-06-19T02:22:52.449Z,9.07
2023-06-19T02:23:24.026Z,9.90
2023-06-19T02:23:55.558Z,8.67
2023-06-19T02:24:27.083Z,8.48
2023-06-19T02:24:58.559Z,9.52
2023-06-19T02:25:30.182Z,9.38
2023-06-19T02:26:01.670Z,8.68
2023-06-19T02:26:33.122Z,9.45
2023-06-19T02:27:04.776Z,10.17
2023-06-19T02:27:36.176Z,10.00
2023-06-19T02:28:07.600Z,9.35
2023-06-19T02:28:39.067Z,9.57
2023-06-19T02:29:10.842Z,9.80
2023-06-19T02:29:42.389Z,9.98
2023-06-19T02:30:14.030Z,10.30
2023-06-19T02:30:45.504Z,10.18
2023-06-19T02:31:16.912Z,9.63
2023-06-19T02:31:48.313Z,9.00
2023-06-19T02:32:19.744Z,8.63
2023-06-19T02:32:51.177Z,9.25
2023-06-19T02:33:22.607Z,9.98
2023-06-19T02:33:54.130Z,9.18
2023-06-19T02:34:25.608Z,8.63
2023-06-19T02:34:57.038Z,9.70
2023-06-19T02:35:28.472Z,8.73
2023-06-19T02:36:00.269Z,9.35
2023-06-19T02:36:31.983Z,8.38
2023-06-19T02:37:03.475Z,8.43
2023-06-19T02:37:34.911Z,9.18
2023-06-19T02:38:06.293Z,9.23
2023-06-19T02:38:37.717Z,8.48
2023-06-19T02:39:09.418Z,9.68
2023-06-19T02:39:40.888Z,8.50
2023-06-19T02:40:12.582Z,9.30
2023-06-19T02:40:44.003Z,8.50
2023-06-19T02:41:15.543Z,8.55
2023-06-19T02:41:47.105Z,9.05
2023-06-19T02:42:18.579Z,9.13
2023-06-19T02:42:49.964Z,10.98
2023-06-19T02:43:21.371Z,9.82
2023-06-19T02:43:52.851Z,8.75
2023-06-19T02:44:24.287Z,8.30
2023-06-19T02:44:55.667Z,8.82
2023-06-19T02:45:27.108Z,8.88
2023-06-19T02:45:58.643Z,8.45
2023-06-19T02:46:30.197Z,8.40
2023-06-19T02:47:01.715Z,8.85
2023-06-19T02:47:33.510Z,8.98
2023-06-19T02:48:05.685Z,8.82
2023-06-19T02:48:37.224Z,9.20
2023-06-19T02:49:08.695Z,7.75
2023-06-19T02:49:40.152Z,8.63
2023-06-19T02:50:11.624Z,9.32
2023-06-19T02:50:43.044Z,8.77
2023-06-19T02:51:14.510Z,8.70
2023-06-19T02:51:46.770Z,9.13
2023-06-19T02:52:18.368Z,9.02
2023-06-19T02:52:49.972Z,9.23
2023-06-19T02:53:21.440Z,8.10
2023-06-19T02:53:52.873Z,8.63
2023-06-19T02:54:24.295Z,8.45
2023-06-19T02:54:55.694Z,9.18
2023-06-19T02:55:27.133Z,9.20
2023-06-19T02:55:58.538Z,8.43
2023-06-19T02:56:29.964Z,9.00
2023-06-19T02:57:01.424Z,8.48
2023-06-19T02:57:32.809Z,8.05
2023-06-19T02:58:04.202Z,8.60
2023-06-19T02:58:35.629Z,8.85
2023-06-19T02:59:07.085Z,8.13
2023-06-19T02:59:38.487Z,8.93
2023-06-19T03:00:10.318Z,8.68
2023-06-19T03:00:41.794Z,7.57
2023-06-19T03:01:13.270Z,8.95
2023-06-19T03:01:44.758Z,7.85
2023-06-19T03:02:16.350Z,9.00
2023-06-19T03:02:47.876Z,9.35
2023-06-19T03:03:19.446Z,9.60
2023-06-19T03:03:50.993Z,8.15
2023-06-19T03:04:22.542Z,9.00
2023-06-19T03:04:53.977Z,8.13
2023-06-19T03:05:25.384Z,9.00
2023-06-19T03:05:56.850Z,7.50
2023-06-19T03:06:28.261Z,8.55
2023-06-19T03:06:59.821Z,8.63
2023-06-19T03:07:31.327Z,8.32
2023-06-19T03:08:02.818Z,8.80
2023-06-19T03:08:37.482Z,8.43
2023-06-19T03:09:09.627Z,8.73
2023-06-19T03:09:41.037Z,8.20
2023-06-19T03:10:12.504Z,7.95
2023-06-19T03:10:44.175Z,9.27
2023-06-19T03:11:15.713Z,8.40
2023-06-19T03:11:47.133Z,7.70
2023-06-19T03:12:18.531Z,9.20
2023-06-19T03:12:50.048Z,8.30
2023-06-19T03:13:21.487Z,8.32
2023-06-19T03:13:53.415Z,8.55
2023-06-19T03:14:24.869Z,7.00
2023-06-19T03:14:56.433Z,8.10
2023-06-19T03:15:27.932Z,8.50
2023-06-19T03:15:59.433Z,9.00
2023-06-19T03:16:30.855Z,8.85
2023-06-19T03:17:02.283Z,8.40
2023-06-19T03:17:33.806Z,8.88
2023-06-19T03:18:05.295Z,8.67
2023-06-19T03:18:36.709Z,8.35
2023-06-19T03:19:08.174Z,8.75
2023-06-19T03:19:39.669Z,8.63
2023-06-19T03:20:11.419Z,9.20
2023-06-19T03:20:42.876Z,8.75
2023-06-19T03:21:17.234Z,8.77
2023-06-19T03:21:48.676Z,7.83
2023-06-19T03:22:21.110Z,8.18
2023-06-19T03:22:52.581Z,7.80
2023-06-19T03:23:23.997Z,8.30
2023-06-19T03:23:55.546Z,8.40
2023-06-19T03:24:27.081Z,8.68
2023-06-19T03:24:58.577Z,8.23
2023-06-19T03:25:30.020Z,8.15
2023-06-19T03:26:01.454Z,8.15
2023-06-19T03:26:32.836Z,8.25
2023-06-19T03:27:04.338Z,7.70
2023-06-19T03:27:36.084Z,8.15
2023-06-19T03:28:07.828Z,8.85
2023-06-19T03:28:39.263Z,7.83
2023-06-19T03:29:10.737Z,7.78
2023-06-19T03:29:42.161Z,8.18
2023-06-19T03:30:13.754Z,8.32
2023-06-19T03:30:45.215Z,8.80
2023-06-19T03:31:16.801Z,7.82
2023-06-19T03:31:48.215Z,8.63
2023-06-19T03:32:19.746Z,7.93
2023-06-19T03:32:51.282Z,9.57
2023-06-19T03:33:22.801Z,7.85
2023-06-19T03:33:54.336Z,8.18
2023-06-19T03:34:26.160Z,7.82
2023-06-19T03:34:57.590Z,7.83
2023-06-19T03:35:28.975Z,8.32
2023-06-19T03:36:00.350Z,8.45
2023-06-19T03:36:31.794Z,9.25
2023-06-19T03:37:03.267Z,8.40
2023-06-19T03:37:34.722Z,8.05
2023-06-19T03:38:06.134Z,7.55
2023-06-19T03:38:37.542Z,7.47
2023-06-19T03:39:08.957Z,8.77
2023-06-19T03:39:40.443Z,6.97
2023-06-19T03:40:12.040Z,8.52
2023-06-19T03:40:43.470Z,8.15
2023-06-19T03:41:14.919Z,7.55
2023-06-19T03:41:46.342Z,7.97
2023-06-19T03:42:17.736Z,7.82
2023-06-19T03:42:49.139Z,8.25
2023-06-19T03:43:20.631Z,7.88
2023-06-19T03:43:52.133Z,7.38
2023-06-19T03:44:23.586Z,7.50
2023-06-19T03:44:55.001Z,9.30
2023-06-19T03:45:26.400Z,7.70
2023-06-19T03:45:57.891Z,7.60
2023-06-19T03:46:29.443Z,8.05
2023-06-19T03:47:00.905Z,7.65
2023-06-19T03:47:32.459Z,7.50
2023-06-19T03:48:04.169Z,7.38
2023-06-19T03:48:35.598Z,8.02
2023-06-19T03:49:06.990Z,8.10
2023-06-19T03:49:38.383Z,7.32
2023-06-19T03:50:19.528Z,7.80
2023-06-19T03:51:01.338Z,6.85
2023-06-19T03:51:33.391Z,8.35
2023-06-19T03:52:05.025Z,6.78
2023-06-19T03:52:39.467Z,7.72
2023-06-19T03:53:10.989Z,8.20
2023-06-19T03:53:42.406Z,7.18
2023-06-19T03:54:13.817Z,7.68
2023-06-19T03:54:45.260Z,7.88
2023-06-19T03:55:16.737Z,7.65
2023-06-19T03:55:48.109Z,7.35
2023-06-19T03:56:19.524Z,6.70
2023-06-19T03:56:50.938Z,7.17
2023-06-19T03:57:22.324Z,7.40
2023-06-19T03:57:53.742Z,7.72
2023-06-19T03:58:25.178Z,7.53
2023-06-19T03:58:56.607Z,8.00
2023-06-19T03:59:28.030Z,6.40
2023-06-19T03:59:59.468Z,7.18
2023-06-19T04:00:30.888Z,6.43
2023-06-19T04:01:02.296Z,7.50
2023-06-19T04:01:33.725Z,7.77
2023-06-19T04:02:05.368Z,7.63
2023-06-19T04:02:36.843Z,8.57
2023-06-19T04:03:08.396Z,7.47
2023-06-19T04:03:42.015Z,7.15
2023-06-19T04:04:13.848Z,7.20
2023-06-19T04:04:45.446Z,6.57
2023-06-19T04:05:16.868Z,7.15
2023-06-19T04:05:48.233Z,7.57
2023-06-19T04:06:19.665Z,7.35
2023-06-19T04:06:51.079Z,6.70
2023-06-19T04:07:22.471Z,6.72
2023-06-19T04:07:53.900Z,7.72
2023-06-19T04:08:25.415Z,6.63
2023-06-19T04:08:56.803Z,7.25
2023-06-19T04:09:28.225Z,6.82
2023-06-19T04:09:59.881Z,7.75
2023-06-19T04:10:31.566Z,7.50
2023-06-19T04:11:03.579Z,6.75
2023-06-19T04:11:35.085Z,7.38
2023-06-19T04:12:06.624Z,6.88
2023-06-19T04:12:38.360Z,6.72
2023-06-19T04:13:09.819Z,6.85
2023-06-19T04:13:41.227Z,7.28
2023-06-19T04:14:12.652Z,7.40
2023-06-19T04:14:44.129Z,7.40
2023-06-19T04:15:15.664Z,7.78
2023-06-19T04:15:49.429Z,6.95
2023-06-19T04:16:22.837Z,6.88
2023-06-19T04:16:54.375Z,6.95
2023-06-19T04:17:25.819Z,6.78
2023-06-19T04:17:57.288Z,7.55
2023-06-19T04:18:28.707Z,7.10
2023-06-19T04:19:00.106Z,6.80
2023-06-19T04:19:31.566Z,7.13
2023-06-19T04:20:03.488Z,7.20
2023-06-19T04:20:34.970Z,7.35
2023-06-19T04:21:06.430Z,6.43
2023-06-19T04:21:37.877Z,7.15
2023-06-19T04:22:09.284Z,7.72
2023-06-19T04:22:41.617Z,7.90
2023-06-19T04:23:13.078Z,7.93
2023-06-19T04:23:44.467Z,7.50
2023-06-19T04:24:15.941Z,7.65
2023-06-19T04:24:47.381Z,7.18
2023-06-19T04:25:18.894Z,7.47
2023-06-19T04:25:50.341Z,7.30
2023-06-19T04:26:21.738Z,7.68
2023-06-19T04:26:53.149Z,7.28
2023-06-19T04:27:24.565Z,7.13
2023-06-19T04:27:55.981Z,7.38
2023-06-19T04:28:27.485Z,7.35
2023-06-19T04:28:58.908Z,7.47
2023-06-19T04:29:30.321Z,6.65
2023-06-19T04:30:01.923Z,6.65
2023-06-19T04:30:33.346Z,7.82
2023-06-19T04:31:04.937Z,8.05
2023-06-19T04:31:36.356Z,7.47
2023-06-19T04:32:07.901Z,7.13
2023-06-19T04:32:39.434Z,7.13
2023-06-19T04:33:10.978Z,7.82
2023-06-19T04:33:42.439Z,7.10
2023-06-19T04:34:15.001Z,7.20
2023-06-19T04:34:46.426Z,7.45
2023-06-19T04:35:17.836Z,9.07
2023-06-19T04:35:49.268Z,7.82
2023-06-19T04:36:20.746Z,7.77
2023-06-19T04:36:52.711Z,7.57
2023-06-19T04:37:24.135Z,7.40
2023-06-19T04:37:55.596Z,7.45
2023-06-19T04:38:26.989Z,7.65
2023-06-19T04:38:58.558Z,7.50
2023-06-19T04:39:29.948Z,7.45
2023-06-19T04:40:01.366Z,7.53
2023-06-19T04:40:32.780Z,7.55
2023-06-19T04:41:04.311Z,7.82
2023-06-19T04:41:35.727Z,7.75
2023-06-19T04:42:07.402Z,7.47
2023-06-19T04:42:38.798Z,6.75
2023-06-19T04:43:10.158Z,8.00
2023-06-19T04:43:41.609Z,8.15
2023-06-19T04:44:13.005Z,7.10
2023-06-19T04:44:44.451Z,7.75
2023-06-19T04:45:15.860Z,8.35
2023-06-19T04:45:47.372Z,7.88
2023-06-19T04:46:18.895Z,7.15
2023-06-19T04:46:50.497Z,8.35
2023-06-19T04:47:23.445Z,7.50
2023-06-19T04:47:55.091Z,7.53
2023-06-19T04:48:26.667Z,7.95
2023-06-19T04:48:58.134Z,8.30
2023-06-19T04:49:30.025Z,7.47
2023-06-19T04:50:01.457Z,7.78
2023-06-19T04:50:32.882Z,7.82
2023-06-19T04:51:04.281Z,7.63
2023-06-19T04:51:35.713Z,7.60
2023-06-19T04:52:07.404Z,7.38
2023-06-19T04:52:38.882Z,7.63
2023-06-19T04:53:10.379Z,7.35
2023-06-19T04:53:41.814Z,7.55
2023-06-19T04:54:13.244Z,7.60
2023-06-19T04:54:44.672Z,7.55
2023-06-19T04:55:16.081Z,7.05
2023-06-19T04:55:47.480Z,7.97
2023-06-19T04:56:19.047Z,8.07
2023-06-19T04:56:50.476Z,7.13
2023-06-19T04:57:21.861Z,6.95
2023-06-19T04:57:53.279Z,7.45
2023-06-19T04:58:24.734Z,8.13
2023-06-19T04:58:56.639Z,7.65
2023-06-19T04:59:28.190Z,7.38
2023-06-19T04:59:59.564Z,7.80
2023-06-19T05:00:30.971Z,7.40
2023-06-19T05:01:02.446Z,9.65
2023-06-19T05:01:34.028Z,9.52
2023-06-19T05:02:05.546Z,8.20
2023-06-19T05:02:37.054Z,7.47
2023-06-19T05:03:08.568Z,7.13
2023-06-19T05:03:40.857Z,8.77
2023-06-19T05:04:12.315Z,8.88
2023-06-19T05:04:44.037Z,8.57
2023-06-19T05:05:16.010Z,8.80
2023-06-19T05:05:47.431Z,8.02
2023-06-19T05:06:18.851Z,7.85
2023-06-19T05:06:50.619Z,9.52
2023-06-19T05:07:22.020Z,7.88
2023-06-19T05:07:53.476Z,7.68
2023-06-19T05:08:24.912Z,7.93
2023-06-19T05:08:56.331Z,8.77
2023-06-19T05:09:27.801Z,7.88
2023-06-19T05:09:59.943Z,9.38
2023-06-19T05:10:31.480Z,8.93
2023-06-19T05:11:02.964Z,8.57
2023-06-19T05:11:34.421Z,8.15
2023-06-19T05:12:06.218Z,8.68
2023-06-19T05:12:37.702Z,8.27
2023-06-19T05:13:09.197Z,8.48
2023-06-19T05:13:40.718Z,9.35
2023-06-19T05:14:12.149Z,8.52
2023-06-19T05:14:43.601Z,8.15
2023-06-19T05:15:15.032Z,8.60
2023-06-19T05:15:46.467Z,8.38
2023-06-19T05:16:17.908Z,8.45
2023-06-19T05:16:49.388Z,8.27
2023-06-19T05:17:21.091Z,8.23
2023-06-19T05:17:52.869Z,8.85
2023-06-19T05:18:24.482Z,8.52
2023-06-19T05:18:55.934Z,8.40
2023-06-19T05:19:27.302Z,8.57
2023-06-19T05:19:58.721Z,8.32
2023-06-19T05:20:30.114Z,7.82
2023-06-19T05:21:01.550Z,8.45
2023-06-19T05:21:32.999Z,8.40
2023-06-19T05:22:04.538Z,8.00
2023-06-19T05:22:35.933Z,8.70
2023-06-19T05:23:07.390Z,7.75
2023-06-19T05:23:38.854Z,7.60
2023-06-19T05:24:10.353Z,7.65
2023-06-19T05:24:41.969Z,7.73
2023-06-19T05:25:13.528Z,7.85
2023-06-19T05:25:44.922Z,8.07
2023-06-19T05:26:16.761Z,8.73
2023-06-19T05:26:48.235Z,7.75
2023-06-19T05:27:19.648Z,8.10
2023-06-19T05:27:51.103Z,7.20
2023-06-19T05:28:22.534Z,7.10
2023-06-19T05:28:54.165Z,7.75
2023-06-19T05:29:25.557Z,8.55
2023-06-19T05:29:56.926Z,7.97
2023-06-19T05:30:28.330Z,7.47
2023-06-19T05:30:59.796Z,7.78
2023-06-19T05:31:31.276Z,7.22
2023-06-19T05:32:02.838Z,8.63
2023-06-19T05:32:34.353Z,6.75
2023-06-19T05:33:05.927Z,7.30
2023-06-19T05:33:37.447Z,8.15
2023-06-19T05:34:09.099Z,8.68
2023-06-19T05:34:40.642Z,7.43
2023-06-19T05:35:14.482Z,8.40
2023-06-19T05:35:47.733Z,7.80
2023-06-19T05:36:19.204Z,8.55
2023-06-19T05:36:50.697Z,7.70
2023-06-19T05:37:22.206Z,7.53
2023-06-19T05:37:53.639Z,8.05
2023-06-19T05:38:25.087Z,8.43
2023-06-19T05:38:56.548Z,8.10
2023-06-19T05:39:27.964Z,7.60
2023-06-19T05:39:59.564Z,7.60
2023-06-19T05:40:30.935Z,8.02
2023-06-19T05:41:03.565Z,7.53
2023-06-19T05:41:34.955Z,7.95
2023-06-19T05:42:06.718Z,8.43
2023-06-19T05:42:38.191Z,7.50
2023-06-19T05:43:09.704Z,7.65
2023-06-19T05:43:41.112Z,8.95
2023-06-19T05:44:12.998Z,6.88
2023-06-19T05:44:44.443Z,7.35
2023-06-19T05:45:16.062Z,6.05
2023-06-19T05:45:47.532Z,7.35
2023-06-19T05:46:19.087Z,7.53
2023-06-19T05:46:50.513Z,7.82
2023-06-19T05:47:22.016Z,7.53
2023-06-19T05:47:53.528Z,8.70
2023-06-19T05:48:24.957Z,7.45
2023-06-19T05:48:56.388Z,8.32
2023-06-19T05:49:27.889Z,7.68
2023-06-19T05:49:59.428Z,7.47
2023-06-19T05:50:30.925Z,7.60
2023-06-19T05:51:02.325Z,7.43
2023-06-19T05:51:33.888Z,7.80
2023-06-19T05:52:05.511Z,8.15
2023-06-19T05:52:36.892Z,7.93
2023-06-19T05:53:08.354Z,7.15
2023-06-19T05:53:39.785Z,7.30
2023-06-19T05:54:11.188Z,8.60
2023-06-19T05:54:42.631Z,7.40
2023-06-19T05:55:14.057Z,7.70
2023-06-19T05:55:45.531Z,8.23
2023-06-19T05:56:17.441Z,8.13
2023-06-19T05:56:48.932Z,6.93
2023-06-19T05:57:20.709Z,7.88
2023-06-19T05:57:52.130Z,7.20
2023-06-19T05:58:23.510Z,7.83
2023-06-19T05:58:54.943Z,8.40
2023-06-19T05:59:26.414Z,8.30
2023-06-19T05:59:57.819Z,8.07
2023-06-19T06:00:29.274Z,7.65
2023-06-19T06:01:00.697Z,8.18
2023-06-19T06:01:32.349Z,8.05
2023-06-19T06:02:03.902Z,6.75
2023-06-19T06:02:35.363Z,7.18
2023-06-19T06:03:06.793Z,7.88
2023-06-19T06:03:38.241Z,8.00
2023-06-19T06:04:09.787Z,8.13
2023-06-19T06:04:41.320Z,8.00
2023-06-19T06:05:12.925Z,7.45
2023-06-19T06:05:44.417Z,6.97
2023-06-19T06:06:15.846Z,7.43
2023-06-19T06:06:47.244Z,7.88
2023-06-19T06:07:18.754Z,7.32
2023-06-19T06:07:50.280Z,7.47
2023-06-19T06:08:21.769Z,7.97
2023-06-19T06:08:53.157Z,7.03
2023-06-19T06:09:24.609Z,7.80
2023-06-19T06:09:56.066Z,7.30
2023-06-19T06:10:27.809Z,6.75
2023-06-19T06:10:59.557Z,7.95
2023-06-19T06:11:31.055Z,7.45
2023-06-19T06:12:02.602Z,8.02
2023-06-19T06:12:36.904Z,7.22
2023-06-19T06:13:08.276Z,6.93
2023-06-19T06:13:39.742Z,7.72
2023-06-19T06:14:13.301Z,9.05
2023-06-19T06:14:45.061Z,7.80
2023-06-19T06:15:16.636Z,7.78
2023-06-19T06:15:48.102Z,8.07
2023-06-19T06:16:19.609Z,8.35
2023-06-19T06:16:51.176Z,7.78
2023-06-19T06:17:22.657Z,7.90
2023-06-19T06:17:54.275Z,7.15
2023-06-19T06:18:25.707Z,6.70
2023-06-19T06:18:57.163Z,7.07
2023-06-19T06:19:29.271Z,8.07
2023-06-19T06:20:01.832Z,7.18
2023-06-19T06:20:33.259Z,6.68
2023-06-19T06:21:04.741Z,6.57
2023-06-19T06:21:36.288Z,7.00
2023-06-19T06:22:07.747Z,7.53
2023-06-19T06:22:43.021Z,7.20
2023-06-19T06:23:14.465Z,6.93
2023-06-19T06:23:46.142Z,7.25
2023-06-19T06:24:17.773Z,8.13
2023-06-19T06:24:49.332Z,6.63
2023-06-19T06:25:20.734Z,7.00
2023-06-19T06:25:52.177Z,6.95
2023-06-19T06:26:23.768Z,7.53
2023-06-19T06:26:55.224Z,6.72
2023-06-19T06:27:26.654Z,7.05
2023-06-19T06:27:58.085Z,6.93
2023-06-19T06:28:29.768Z,7.07
2023-06-19T06:29:01.181Z,7.63
2023-06-19T06:29:32.667Z,7.40
2023-06-19T06:30:04.348Z,7.15
2023-06-19T06:30:35.800Z,7.00
2023-06-19T06:31:07.561Z,6.75
2023-06-19T06:31:39.297Z,6.50
2023-06-19T06:32:10.780Z,7.43
2023-06-19T06:32:42.200Z,7.20
2023-06-19T06:33:13.680Z,7.20
2023-06-19T06:33:45.197Z,6.95
2023-06-19T06:34:16.648Z,7.85
2023-06-19T06:34:48.036Z,7.47
2023-06-19T06:35:19.534Z,6.80
2023-06-19T06:35:51.172Z,6.65
2023-06-19T06:36:33.858Z,7.47
2023-06-19T06:37:07.893Z,7.13
2023-06-19T06:37:39.733Z,7.32
2023-06-19T06:38:11.143Z,7.38
2023-06-19T06:38:42.791Z,7.47
2023-06-19T06:39:14.224Z,7.88
2023-06-19T06:39:45.670Z,6.65
2023-06-19T06:40:17.133Z,6.93
2023-06-19T06:40:48.573Z,6.82
2023-06-19T06:41:19.977Z,7.13
2023-06-19T06:41:51.470Z,7.35
2023-06-19T06:42:22.878Z,7.75
2023-06-19T06:42:54.319Z,6.78
2023-06-19T06:43:25.738Z,6.63
2023-06-19T06:43:57.153Z,6.90
2023-06-19T06:44:28.643Z,7.50
2023-06-19T06:45:00.089Z,8.05
2023-06-19T06:45:31.594Z,6.90
2023-06-19T06:46:03.076Z,7.72
2023-06-19T06:46:34.584Z,7.18
2023-06-19T06:47:06.048Z,6.20
2023-06-19T06:47:37.477Z,6.63
2023-06-19T06:48:09.383Z,5.95
2023-06-19T06:48:40.840Z,6.68
2023-06-19T06:49:12.424Z,7.67
2023-06-19T06:49:43.824Z,7.25
2023-06-19T06:50:15.287Z,7.05
2023-06-19T06:50:46.737Z,7.25
2023-06-19T06:51:18.216Z,6.70
2023-06-19T06:51:49.644Z,7.32
2023-06-19T06:52:21.128Z,7.10
2023-06-19T06:52:52.567Z,6.63
2023-06-19T06:53:24.089Z,7.28
2023-06-19T06:53:55.616Z,6.97
2023-06-19T06:54:27.075Z,7.25
2023-06-19T06:54:58.684Z,7.60
2023-06-19T06:55:30.090Z,6.63
2023-06-19T06:56:01.652Z,6.43
2023-06-19T06:56:33.092Z,6.32
2023-06-19T06:57:04.756Z,7.20
2023-06-19T06:57:36.203Z,7.70
2023-06-19T06:58:07.601Z,7.22
2023-06-19T06:58:39.083Z,7.45
2023-06-19T06:59:10.489Z,7.50
2023-06-19T06:59:41.946Z,6.40